Time;durP1;ratioP1;P1;durP2;ratioP2;P2;SDS_P1;SDS_P2;PMS_P1;PMS_P2;Temp;Humidity;BMP_temperature;BMP_pressure;BME280_temperature;BME280_humidity;BME280_pressure;Samples;Min_cycle;Max_cycle;Signal;HPM_P1;HPM_P2
2022/06/20 00:02:21;;;;;;;7.28;2.72;;;;;;;23.79;47.01;97748.03;5371197;26;20124;-81
2022/06/20 00:04:49;;;;;;;5.75;2.80;;;;;;;24.14;46.26;97749.72;5371535;26;20463;-80
2022/06/20 00:07:17;;;;;;;5.45;2.60;;;;;;;24.60;44.79;97737.84;5371195;26;20060;-81
2022/06/20 00:09:45;;;;;;;6.70;2.80;;;;;;;24.63;44.28;97737.53;5391045;26;20083;-81
2022/06/20 00:12:22;;;;;;;5.37;2.87;;;;;;;23.56;47.17;97732.72;5391642;26;20390;-80
2022/06/20 00:14:53;;;;;;;4.85;2.58;;;;;;;24.51;44.34;97731.72;5371473;26;20083;-81
2022/06/20 00:17:21;;;;;;;8.02;2.87;;;;;;;23.85;46.22;97726.34;5371088;26;20437;-81
2022/06/20 00:19:48;;;;;;;4.97;2.53;;;;;;;24.21;45.58;97738.34;5391389;26;20048;-81
2022/06/20 00:22:15;;;;;;;6.53;3.12;;;;;;;23.86;46.26;97727.97;5391109;26;20461;-81
2022/06/20 00:24:42;;;;;;;7.00;3.08;;;;;;;24.04;45.95;97728.75;5391490;26;20059;-81
2022/06/20 00:27:10;;;;;;;5.45;2.70;;;;;;;24.20;45.65;97728.78;5391374;26;20073;-81
2022/06/20 00:29:39;;;;;;;8.07;3.62;;;;;;;24.58;44.68;97723.19;5370933;26;20861;-81
2022/06/20 00:32:08;;;;;;;7.18;3.00;;;;;;;23.77;46.26;97713.94;5371492;26;20075;-81
2022/06/20 00:34:35;;;;;;;7.43;3.00;;;;;;;25.28;42.94;97710.41;5391453;26;20071;-81
2022/06/20 00:37:04;;;;;;;5.53;2.90;;;;;;;25.02;43.46;97711.41;5370912;26;20111;-81
2022/06/20 00:39:31;;;;;;;7.87;2.80;;;;;;;26.25;40.97;97714.63;5371170;26;20398;-81
2022/06/20 00:42:03;;;;;;;6.80;3.00;;;;;;;26.32;40.64;97705.03;5391321;26;20091;-81
2022/06/20 00:44:36;;;;;;;5.68;2.80;;;;;;;26.17;40.78;97710.22;5390964;26;20060;-82
2022/06/20 00:47:11;;;;;;;6.60;2.90;;;;;;;25.93;41.05;97705.84;5371479;26;20512;-81
2022/06/20 00:49:45;;;;;;;5.60;2.90;;;;;;;25.18;42.87;97705.28;5371121;26;20115;-81
2022/06/20 00:52:37;;;;;;;5.05;2.92;;;;;;;25.16;43.13;97704.63;5391168;26;20529;-81
2022/06/20 00:55:10;;;;;;;5.87;2.87;;;;;;;25.25;43.12;97702.81;5371454;26;20074;-81
2022/06/20 00:57:41;;;;;;;6.35;2.90;;;;;;;23.64;46.86;97698.56;5390818;26;20139;-81
2022/06/20 01:00:13;;;;;;;5.35;2.80;;;;;;;24.53;44.76;97694.66;5371485;26;20065;-81
2022/06/20 01:02:47;;;;;;;6.72;3.15;;;;;;;23.93;46.09;97695.59;5371231;26;20067;-81
2022/06/20 01:05:50;;;;;;;5.53;3.28;;;;;;;24.65;44.60;97681.97;5390902;26;20071;-81
2022/06/20 01:08:25;;;;;;;6.57;3.10;;;;;;;24.33;45.89;97688.00;5369448;26;20111;-81
2022/06/20 01:10:55;;;;;;;6.43;3.20;;;;;;;24.35;44.96;97686.88;5371246;26;20130;-81
2022/06/20 01:13:23;;;;;;;8.65;3.58;;;;;;;24.00;45.66;97689.66;5370979;26;20485;-81
2022/06/20 01:15:53;;;;;;;6.55;3.17;;;;;;;24.64;43.98;97669.78;5391301;26;20113;-80
2022/06/20 01:18:30;;;;;;;8.57;3.90;;;;;;;23.00;47.89;97670.78;5370941;26;20056;-81
2022/06/20 01:20:58;;;;;;;6.57;3.22;;;;;;;20.27;57.57;97666.66;5391279;26;20098;-80
2022/06/20 01:23:47;;;;;;;9.48;3.37;;;;;;;22.89;49.75;97665.75;5391045;26;20050;-81
2022/06/20 01:26:46;;;;;;;6.20;3.22;;;;;;;22.56;50.56;97667.25;5390826;26;20116;-81
2022/06/20 01:29:13;;;;;;;8.35;3.45;;;;;;;23.67;47.51;97663.19;5371004;26;20074;-80
2022/06/20 01:31:45;;;;;;;8.43;3.22;;;;;;;23.65;47.46;97657.25;5391072;26;20397;-80
2022/06/20 01:34:15;;;;;;;7.80;3.50;;;;;;;24.18;45.80;97653.50;5370775;26;20111;-81
2022/06/20 01:39:30;;;;;;;8.45;3.65;;;;;;;24.82;44.18;97649.34;5390664;26;20114;-81
2022/06/20 01:44:44;;;;;;;7.43;3.05;;;;;;;24.10;46.01;97643.75;5391138;26;20396;-81
2022/06/20 01:47:11;;;;;;;7.62;3.40;;;;;;;22.81;48.79;97636.72;5390334;26;20160;-81
2022/06/20 01:49:39;;;;;;;7.20;3.28;;;;;;;23.08;48.38;97641.91;5390956;26;20125;-80
2022/06/20 01:52:21;;;;;;;7.65;3.47;;;;;;;22.88;49.00;97627.28;5371035;26;20048;-81
2022/06/20 01:54:52;;;;;;;7.40;3.70;;;;;;;21.66;52.41;97629.41;5390789;26;20095;-81
2022/06/20 01:57:20;;;;;;;7.72;3.60;;;;;;;20.95;55.49;97626.44;5344832;26;20083;-80
2022/06/20 01:59:56;;;;;;;8.50;3.90;;;;;;;19.68;59.96;97622.97;5323513;27;20072;-80
2022/06/20 02:02:24;;;;;;;7.37;3.55;;;;;;;21.74;52.86;97617.38;5323311;26;20479;-81
2022/06/20 02:04:52;;;;;;;9.35;3.67;;;;;;;21.83;52.13;97619.12;5323921;26;20056;-80
2022/06/20 02:07:19;;;;;;;6.82;3.40;;;;;;;21.44;53.59;97618.47;5323829;26;20404;-80
2022/06/20 02:09:47;;;;;;;7.12;3.47;;;;;;;21.56;53.27;97614.69;5323322;26;20110;-81
2022/06/20 02:12:15;;;;;;;7.32;3.50;;;;;;;22.28;50.77;97615.69;5323716;26;20111;-80
2022/06/20 02:14:46;;;;;;;7.60;3.60;;;;;;;22.11;50.79;97610.25;5323167;26;20100;-81
2022/06/20 02:17:19;;;;;;;7.28;3.92;;;;;;;20.19;57.28;97607.09;5322065;26;20372;-80
2022/06/20 02:19:49;;;;;;;7.07;3.47;;;;;;;21.18;54.58;97608.59;5323614;26;20057;-80
2022/06/20 02:22:18;;;;;;;8.65;3.80;;;;;;;21.07;55.02;97609.56;5322523;27;20324;-81
2022/06/20 02:24:47;;;;;;;7.65;4.10;;;;;;;21.83;52.75;97611.25;5323228;27;20092;-81
2022/06/20 02:27:24;;;;;;;9.23;3.72;;;;;;;21.27;54.78;97615.63;5323153;26;20108;-80
2022/06/20 02:29:51;;;;;;;7.47;3.60;;;;;;;21.85;52.41;97612.75;5322888;27;20140;-81
2022/06/20 02:32:21;;;;;;;9.13;3.97;;;;;;;21.06;55.16;97612.34;5324662;26;20372;-80
2022/06/20 02:34:48;;;;;;;7.00;3.55;;;;;;;21.56;53.55;97606.81;5324581;26;20075;-80
2022/06/20 02:37:23;;;;;;;5.87;3.20;;;;;;;21.96;52.10;97611.72;5324210;26;20127;-81
2022/06/20 02:39:57;;;;;;;8.52;3.78;;;;;;;22.27;51.27;97611.41;5323285;27;20085;-80
2022/06/20 02:42:51;;;;;;;7.68;3.70;;;;;;;22.86;49.74;97612.59;5324462;26;20064;-80
2022/06/20 02:45:19;;;;;;;9.68;3.75;;;;;;;23.03;49.08;97612.59;5322427;27;20058;-80
2022/06/20 02:47:49;;;;;;;7.55;3.80;;;;;;;23.82;46.97;97614.19;5324042;26;20114;-80
2022/06/20 02:50:19;;;;;;;7.30;4.07;;;;;;;23.26;48.04;97614.69;5324134;26;20125;-81
2022/06/20 02:53:06;;;;;;;7.90;3.70;;;;;;;23.83;46.67;97607.94;5323258;27;20079;-81
2022/06/20 02:55:34;;;;;;;8.07;3.90;;;;;;;23.15;48.49;97614.97;5323121;27;20421;-80
2022/06/20 02:58:06;;;;;;;7.72;3.80;;;;;;;22.23;51.31;97614.34;5322233;26;20087;-81
2022/06/20 03:00:41;;;;;;;7.93;3.80;;;;;;;22.73;50.42;97621.69;5323181;27;20069;-81
2022/06/20 03:03:23;;;;;;;10.07;3.40;;;;;;;22.53;51.46;97617.56;5324486;26;20406;-81
2022/06/20 03:05:50;;;;;;;8.10;3.80;;;;;;;23.50;48.44;97614.84;5322771;27;20049;-81
2022/06/20 03:08:17;;;;;;;7.93;3.58;;;;;;;23.51;47.85;97615.69;5324184;26;20064;-80
2022/06/20 03:10:46;;;;;;;7.30;3.70;;;;;;;23.14;49.48;97614.13;5324224;26;20109;-81
2022/06/20 03:13:14;;;;;;;8.27;3.75;;;;;;;23.31;48.94;97621.16;5324382;26;20773;-81
2022/06/20 03:15:43;;;;;;;7.37;3.53;;;;;;;23.13;49.79;97622.19;5324477;26;20101;-80
2022/06/20 03:18:16;;;;;;;10.15;4.18;;;;;;;23.04;50.07;97624.75;5322409;26;20072;-81
2022/06/20 03:20:44;;;;;;;6.85;3.30;;;;;;;22.45;52.33;97625.41;5324437;26;20419;-80
2022/06/20 03:23:25;;;;;;;7.45;3.75;;;;;;;23.29;49.83;97620.50;5322900;27;20114;-81
2022/06/20 03:25:53;;;;;;;8.20;3.30;;;;;;;23.45;48.66;97618.91;5322716;27;20438;-82
2022/06/20 03:28:21;;;;;;;10.13;3.90;;;;;;;24.33;46.45;97607.09;5324178;26;20052;-81
2022/06/20 03:31:04;;;;;;;7.90;3.60;;;;;;;24.30;46.52;97604.75;5324392;26;20053;-82
2022/06/20 03:33:32;;;;;;;9.35;3.80;;;;;;;24.66;45.58;97609.75;5324147;26;20048;-82
2022/06/20 03:36:04;;;;;;;7.22;3.60;;;;;;;24.59;45.96;97599.06;5322984;27;20055;-81
2022/06/20 03:38:33;;;;;;;6.80;3.50;;;;;;;25.35;44.17;97597.84;5324103;26;20064;-82
2022/06/20 03:41:01;;;;;;;7.30;3.50;;;;;;;24.80;45.74;97590.66;5324075;26;20101;-81
2022/06/20 03:43:28;;;;;;;8.45;3.40;;;;;;;25.52;44.33;97588.88;5324211;26;20048;-82
2022/06/20 03:45:58;;;;;;;5.85;2.87;;;;;;;26.05;43.41;97590.00;5322582;27;20111;-81
2022/06/20 03:48:36;;;;;;;7.65;3.60;;;;;;;26.69;42.26;97587.91;5322894;26;20119;-81
2022/06/20 03:51:06;;;;;;;9.25;3.65;;;;;;;27.46;38.86;97590.34;5324429;26;20076;-81
2022/06/20 03:53:35;;;;;;;7.93;3.17;;;;;;;27.85;38.14;97603.28;5323988;26;20116;-81
2022/06/20 03:56:23;;;;;;;6.07;3.45;;;;;;;28.34;36.56;97597.34;5324318;26;20060;-81
2022/06/20 03:58:50;;;;;;;7.70;3.58;;;;;;;29.07;34.93;97603.34;5324374;26;20065;-81
2022/06/20 04:01:26;;;;;;;8.85;3.60;;;;;;;29.08;34.90;97595.16;5324017;26;20057;-81
2022/06/20 04:04:17;;;;;;;8.70;3.67;;;;;;;29.43;34.26;97607.66;5324234;26;20074;-81
2022/06/20 04:06:50;;;;;;;59.50;6.55;;;;;;;30.20;33.12;97602.94;5324040;26;20065;-81
2022/06/20 04:12:42;;;;;;;12.95;3.60;;;;;;;30.12;33.61;97604.97;5324354;26;20064;-81
2022/06/20 04:15:15;;;;;;;9.30;3.58;;;;;;;30.39;33.57;97597.84;5322591;27;20111;-82
2022/06/20 04:21:17;;;;;;;9.43;3.00;;;;;;;31.03;32.63;97602.63;5322785;27;20060;-81
2022/06/20 04:23:53;;;;;;;6.40;3.17;;;;;;;31.31;32.25;97597.94;5324236;26;20101;-81
2022/06/20 04:26:29;;;;;;;6.22;2.70;;;;;;;31.94;31.16;97603.50;5322798;26;20128;-82
2022/06/20 04:29:04;;;;;;;9.23;3.20;;;;;;;32.52;29.52;97591.91;5323855;26;20060;-82
2022/06/20 04:31:42;;;;;;;4.83;2.73;;;;;;;32.86;29.39;97588.00;5322841;27;20120;-81
2022/06/20 04:34:19;;;;;;;6.72;3.08;;;;;;;33.05;29.95;97595.00;5322862;27;20142;-81
2022/06/20 04:36:49;;;;;;;6.07;2.90;;;;;;;34.17;28.94;97589.50;5323876;26;20526;-81
2022/06/20 04:39:40;;;;;;;5.65;3.00;;;;;;;35.17;27.56;97591.47;5324029;26;20110;-81
2022/06/20 04:42:18;;;;;;;4.82;2.58;;;;;;;36.39;25.72;97599.44;5322654;27;20124;-82
2022/06/20 04:44:54;;;;;;;6.55;2.85;;;;;;;36.46;25.21;97606.25;5323748;26;20076;-82
2022/06/20 04:47:33;;;;;;;5.97;2.80;;;;;;;36.81;25.16;97607.94;5326993;26;20139;-81
2022/06/20 04:50:00;;;;;;;4.57;2.70;;;;;;;37.67;23.82;97615.72;5327195;26;20101;-81
2022/06/20 04:52:29;;;;;;;4.00;2.53;;;;;;;37.03;24.53;97611.56;5318966;26;139638;-81
2022/06/20 04:54:56;;;;;;;9.88;3.37;;;;;;;38.12;23.82;97618.16;5324136;26;20110;-82
2022/06/20 04:57:25;;;;;;;5.55;3.08;;;;;;;37.95;24.08;97615.53;5333072;26;20111;-82
2022/06/20 04:59:58;;;;;;;7.50;2.70;;;;;;;37.15;24.54;97619.53;5346161;26;20052;-82
2022/06/20 05:02:25;;;;;;;8.60;3.40;;;;;;;37.96;23.44;97619.03;5346320;26;20112;-81
2022/06/20 05:04:55;;;;;;;9.52;3.08;;;;;;;37.80;23.90;97613.50;5345865;26;20061;-82
2022/06/20 05:07:30;;;;;;;6.00;3.12;;;;;;;39.11;22.28;97615.09;5326530;26;20052;-82
2022/06/20 05:10:07;;;;;;;4.05;2.85;;;;;;;38.89;22.68;97607.09;5345857;26;20135;-82
2022/06/20 05:12:48;;;;;;;4.72;3.12;;;;;;;38.32;23.75;97615.72;5326547;26;20072;-81
2022/06/20 05:15:21;;;;;;;6.05;3.05;;;;;;;38.45;23.26;97611.81;5346359;26;20091;-81
2022/06/20 05:17:48;;;;;;;7.80;3.08;;;;;;;37.13;24.51;97612.78;5345656;26;20120;-81
2022/06/20 05:20:26;;;;;;;5.50;3.12;;;;;;;37.00;24.95;97612.03;5326501;26;20054;-81
2022/06/20 05:23:00;;;;;;;8.48;3.42;;;;;;;37.15;24.50;97614.16;5326522;26;20084;-81
2022/06/20 05:25:28;;;;;;;6.28;3.45;;;;;;;36.64;24.96;97612.50;5326101;26;20492;-81
2022/06/20 05:27:59;;;;;;;7.50;3.55;;;;;;;36.65;25.06;97617.63;5326177;26;20055;-81
2022/06/20 05:30:31;;;;;;;6.62;3.28;;;;;;;36.92;24.87;97609.78;5346250;26;20054;-81
2022/06/20 05:33:15;;;;;;;6.37;3.05;;;;;;;37.79;23.51;97611.06;5326119;26;20056;-82
2022/06/20 05:35:43;;;;;;;6.90;3.45;;;;;;;37.55;23.30;97608.56;5326423;26;20428;-81
2022/06/20 05:38:29;;;;;;;7.47;3.20;;;;;;;36.18;24.68;97611.66;5345545;26;20099;-81
2022/06/20 05:40:58;;;;;;;6.40;2.97;;;;;;;34.41;26.92;97612.66;5326498;26;20124;-81
2022/06/20 05:43:28;;;;;;;6.72;3.70;;;;;;;34.71;26.37;97617.16;5346009;26;20057;-81
2022/06/20 05:46:03;;;;;;;6.18;3.20;;;;;;;33.40;27.76;97615.91;5345721;26;20120;-81
2022/06/20 05:48:39;;;;;;;7.32;3.33;;;;;;;33.81;27.27;97619.75;5326085;26;20368;-81
2022/06/20 05:51:08;;;;;;;8.48;3.83;;;;;;;33.58;27.10;97617.75;5346082;26;20132;-81
2022/06/20 05:53:38;;;;;;;6.43;3.28;;;;;;;33.05;27.84;97619.06;5325907;26;20391;-81
2022/06/20 05:56:14;;;;;;;6.40;3.50;;;;;;;33.40;27.89;97623.13;5346842;26;20411;-81
2022/06/20 05:58:43;;;;;;;7.62;3.55;;;;;;;33.44;27.47;97625.13;5326913;26;20111;-81
2022/06/20 06:01:19;;;;;;;7.95;3.45;;;;;;;32.19;28.54;97624.94;5346471;26;20119;-81
2022/06/20 06:04:26;;;;;;;6.00;3.30;;;;;;;31.58;28.99;97625.34;5346962;26;20140;-81
2022/06/20 06:07:02;;;;;;;6.13;3.13;;;;;;;31.55;30.37;97635.59;5346094;26;20096;-82
2022/06/20 06:09:33;;;;;;;;;;;;;;;32.34;29.30;97638.03;5346866;26;20063;-82
2022/06/20 06:12:06;;;;;;;6.93;3.15;;;;;;;32.62;28.85;97632.31;5347046;26;19956;-81
2022/06/20 06:14:42;;;;;;;10.52;3.83;;;;;;;31.62;30.57;97625.75;5346411;26;20403;-82
2022/06/20 06:17:19;;;;;;;11.18;3.80;;;;;;;31.63;30.32;97624.72;5327242;26;20064;-82
2022/06/20 06:20:22;;;;;;;8.48;3.92;;;;;;;30.83;31.81;97618.62;5347564;26;20101;-82
2022/06/20 06:22:52;;;;;;;7.85;3.55;;;;;;;31.45;31.41;97622.69;5327207;26;20414;-81
2022/06/20 06:25:24;;;;;;;9.40;3.62;;;;;;;31.63;30.63;97614.06;5346424;26;20124;-83
2022/06/20 06:27:55;;;;;;;5.65;3.33;;;;;;;31.54;30.73;97605.47;5346816;26;20071;-82
2022/06/20 06:30:28;;;;;;;9.15;3.67;;;;;;;31.16;30.33;97601.81;5347233;26;20083;-82
2022/06/20 06:33:00;;;;;;;7.40;3.50;;;;;;;30.87;30.54;97600.41;5326962;26;20092;-82
2022/06/20 06:36:13;;;;;;;7.60;3.60;;;;;;;31.48;30.41;97608.97;5327607;26;20466;-82
2022/06/20 06:38:43;;;;;;;8.93;3.30;;;;;;;31.44;30.35;97601.59;5246029;26;20068;-82
2022/06/20 06:41:19;;;;;;;7.20;3.42;;;;;;;30.78;30.60;97595.28;5348348;26;20095;-82
2022/06/20 06:43:47;;;;;;;7.60;3.90;;;;;;;30.18;31.64;97591.66;5348128;26;20115;-82
2022/06/20 06:46:29;;;;;;;6.87;3.60;;;;;;;29.54;31.34;97583.19;5328637;26;20090;-81
2022/06/20 06:49:18;;;;;;;6.57;3.78;;;;;;;29.57;31.76;97577.50;5328176;26;20092;-82
2022/06/20 06:52:00;;;;;;;8.52;3.72;;;;;;;30.13;32.19;97594.13;5348616;26;20756;-82
2022/06/20 06:54:42;;;;;;;8.93;4.40;;;;;;;29.56;31.89;97574.03;5354623;26;20089;-81
2022/06/20 06:57:34;;;;;;;9.93;4.22;;;;;;;30.11;31.08;97580.22;5349734;26;21591;-82
2022/06/20 07:00:05;;;;;;;7.72;3.67;;;;;;;29.78;30.77;97577.41;5351599;26;20786;-83
2022/06/20 07:02:53;;;;;;;6.50;3.33;;;;;;;29.56;31.94;97578.50;5349641;26;20071;-82
2022/06/20 07:05:28;;;;;;;8.25;3.45;;;;;;;30.23;31.12;97581.25;5328571;26;20048;-83
2022/06/20 07:07:59;;;;;;;8.45;3.58;;;;;;;30.23;31.15;97578.59;5346347;26;20375;-81
2022/06/20 07:10:55;;;;;;;9.93;3.50;;;;;;;30.54;31.01;97569.22;5326808;26;20070;-82
2022/06/20 07:13:39;;;;;;;7.07;3.22;;;;;;;30.26;30.07;97571.22;5346868;26;20067;-81
2022/06/20 07:16:25;;;;;;;6.57;3.65;;;;;;;30.10;30.14;97564.44;5346941;26;20100;-82
2022/06/20 07:18:54;;;;;;;8.73;3.33;;;;;;;30.27;30.47;97571.03;5346234;26;20460;-83
2022/06/20 07:21:23;;;;;;;7.32;3.40;;;;;;;30.62;29.00;97561.00;5326959;26;20123;-83
2022/06/20 07:23:56;;;;;;;7.65;3.30;;;;;;;30.53;29.83;97556.94;5308510;26;20075;-83
2022/06/20 07:26:26;;;;;;;6.28;3.28;;;;;;;30.68;29.84;97556.75;5348661;26;20127;-84
2022/06/20 07:29:03;;;;;;;7.32;3.15;;;;;;;30.61;29.87;97547.91;5327087;26;20080;-85
2022/06/20 07:31:38;;;;;;;6.37;3.33;;;;;;;30.18;29.35;97542.94;5326440;26;20407;-84
2022/06/20 07:34:12;;;;;;;6.82;3.40;;;;;;;30.19;30.22;97542.75;5308721;26;20068;-84
2022/06/20 07:36:46;;;;;;;6.87;3.50;;;;;;;30.69;29.84;97559.22;5326810;26;20068;-84
2022/06/20 07:39:27;;;;;;;9.05;3.50;;;;;;;31.22;29.20;97553.87;5346186;26;20075;-84
2022/06/20 07:42:02;;;;;;;7.62;3.40;;;;;;;30.59;29.81;97548.13;5326925;26;20083;-85
2022/06/20 07:44:37;;;;;;;5.93;3.17;;;;;;;30.65;29.30;97543.88;5326380;26;20059;-84
2022/06/20 07:47:38;;;;;;;6.53;3.30;;;;;;;30.45;29.54;97541.16;5326956;26;20052;-84
2022/06/20 07:50:12;;;;;;;7.45;3.30;;;;;;;30.70;29.16;97539.56;5307211;26;20067;-84
2022/06/20 07:52:41;;;;;;;6.07;3.58;;;;;;;30.78;29.31;97543.84;5346062;26;20074;-85
2022/06/20 07:55:12;;;;;;;10.30;3.40;;;;;;;30.49;29.84;97542.38;5327091;26;20087;-85
2022/06/20 07:57:46;;;;;;;8.05;3.40;;;;;;;30.59;29.20;97553.44;5326408;26;20101;-84
2022/06/20 08:00:16;;;;;;;7.90;3.15;;;;;;;31.30;28.99;97545.66;5326326;26;20146;-84
2022/06/20 08:02:57;;;;;;;6.80;3.20;;;;;;;31.37;28.30;97540.31;5326843;26;20064;-85
2022/06/20 08:05:32;;;;;;;7.05;3.10;;;;;;;31.46;27.77;97543.53;5346095;26;20075;-86
2022/06/20 08:08:09;;;;;;;7.55;3.60;;;;;;;32.12;27.62;97530.75;5326700;26;20343;-86
2022/06/20 08:10:56;;;;;;;;;;;;;;;32.16;27.32;97529.28;5346904;26;20068;-87
2022/06/20 08:13:34;;;;;;;9.60;3.50;;;;;;;32.11;27.59;97530.94;5326480;26;19977;-87
2022/06/20 08:16:14;;;;;;;7.43;3.40;;;;;;;32.43;27.33;97526.44;5326711;26;20090;-87
2022/06/20 08:18:41;;;;;;;8.57;3.35;;;;;;;32.23;27.20;97521.25;5326048;26;20406;-87
2022/06/20 08:21:20;;;;;;;6.57;3.00;;;;;;;32.55;27.00;97532.75;5346105;26;20090;-86
2022/06/20 08:23:53;;;;;;;8.40;3.03;;;;;;;32.22;27.26;97530.25;5346562;26;20056;-86
2022/06/20 08:26:29;;;;;;;6.10;3.10;;;;;;;32.33;27.52;97524.28;5346351;26;20068;-87
2022/06/20 08:29:13;;;;;;;6.22;3.12;;;;;;;31.82;27.25;97530.50;5326614;26;20045;-87
2022/06/20 08:31:49;;;;;;;7.72;2.80;;;;;;;32.03;27.11;97528.56;5308562;26;20102;-87
2022/06/20 08:34:25;;;;;;;7.80;3.22;;;;;;;32.35;27.58;97529.41;5326207;26;20068;-87
2022/06/20 08:37:22;;;;;;;6.37;2.78;;;;;;;32.08;26.31;97534.06;5326722;26;20047;-86
2022/06/20 08:40:34;;;;;;;5.80;2.97;;;;;;;31.58;27.22;97524.03;5346556;26;20071;-86
2022/06/20 08:43:19;;;;;;;5.53;2.80;;;;;;;32.55;27.23;97526.59;5342538;26;20075;-86
2022/06/20 08:46:06;;;;;;;6.35;2.87;;;;;;;31.95;25.46;97516.28;5346591;26;20066;-86
2022/06/20 08:48:46;;;;;;;7.22;3.60;;;;;;;31.47;25.73;97513.19;5345688;26;20057;-86
2022/06/20 08:52:06;;;;;;;7.05;3.33;;;;;;;31.62;25.80;97500.41;5346491;26;20048;-86
2022/06/20 08:54:51;;;;;;;7.18;3.30;;;;;;;31.98;26.58;97513.19;5343829;26;20125;-87
2022/06/20 08:57:46;;;;;;;4.62;2.70;;;;;;;32.71;25.90;97510.00;5345935;26;20403;-86
2022/06/20 09:00:42;;;;;;;8.63;3.30;;;;;;;32.46;25.40;97513.50;5343376;26;20109;-87
2022/06/20 09:03:15;;;;;;;7.93;3.33;;;;;;;31.60;26.12;97513.97;5346120;26;20473;-86
2022/06/20 09:05:45;;;;;;;7.62;2.92;;;;;;;31.38;26.72;97512.62;5346358;26;20102;-86
2022/06/20 09:08:21;;;;;;;7.03;3.17;;;;;;;31.59;26.63;97511.53;5308069;26;20123;-86
2022/06/20 09:10:56;;;;;;;5.05;3.03;;;;;;;31.78;27.01;97521.28;5345902;26;20063;-86
2022/06/20 09:13:44;;;;;;;8.35;3.35;;;;;;;32.17;26.79;97519.44;5326594;26;20068;-86
2022/06/20 09:16:39;;;;;;;5.72;3.00;;;;;;;32.95;26.17;97508.34;5345896;26;20438;-86
2022/06/20 09:19:22;;;;;;;5.97;2.87;;;;;;;33.62;26.29;97522.66;5345656;26;20079;-86
2022/06/20 09:21:51;;;;;;;4.93;2.80;;;;;;;32.32;26.06;97516.47;5346251;26;20103;-86
2022/06/20 09:24:28;;;;;;;10.95;3.37;;;;;;;32.81;26.01;97510.31;5345612;26;20049;-86
2022/06/20 09:27:08;;;;;;;9.90;3.10;;;;;;;32.36;26.97;97505.16;5326422;26;20084;-86
2022/06/20 09:29:48;;;;;;;7.43;3.17;;;;;;;33.12;25.81;97511.28;5325773;26;20136;-86
2022/06/20 09:32:57;;;;;;;7.45;3.10;;;;;;;32.75;26.77;97503.16;5308462;26;20078;-86
2022/06/20 09:35:52;;;;;;;8.02;3.30;;;;;;;32.90;25.95;97495.69;5346242;26;20071;-86
2022/06/20 09:39:13;;;;;;;6.18;3.10;;;;;;;33.01;25.75;97481.59;5326328;26;20082;-86
2022/06/20 09:41:51;;;;;;;7.37;3.30;;;;;;;33.40;25.49;97490.22;5299550;26;20091;-85
2022/06/20 09:44:51;;;;;;;6.20;2.92;;;;;;;33.68;25.79;97486.97;5326006;26;20406;-86
2022/06/20 09:47:50;;;;;;;7.87;3.30;;;;;;;33.53;24.85;97483.91;5345962;26;20115;-86
2022/06/20 09:50:38;;;;;;;7.25;3.30;;;;;;;33.22;25.92;97485.66;5346405;26;20194;-86
2022/06/20 09:53:12;;;;;;;7.55;3.50;;;;;;;32.35;27.15;97486.69;5326659;26;20084;-85
2022/06/20 09:56:04;;;;;;;6.47;3.30;;;;;;;32.58;26.70;97483.41;5346184;26;20048;-86
2022/06/20 09:58:42;;;;;;;8.05;3.60;;;;;;;33.19;27.19;97488.78;5345228;26;20040;-86
2022/06/20 10:01:28;;;;;;;7.53;3.53;;;;;;;33.67;25.81;97486.16;5326919;26;20115;-85
2022/06/20 10:04:03;;;;;;;7.87;3.55;;;;;;;33.33;26.67;97486.78;5350036;26;20091;-84
2022/06/20 10:06:46;;;;;;;8.05;3.53;;;;;;;33.20;27.03;97486.94;5348111;26;20758;-84
2022/06/20 10:09:26;;;;;;;7.05;3.58;;;;;;;33.43;26.04;97488.97;5310011;26;20048;-84
2022/06/20 10:12:06;;;;;;;7.65;3.50;;;;;;;33.37;26.58;97488.78;5349951;26;20086;-82
2022/06/20 10:14:52;;;;;;;7.30;3.05;;;;;;;33.51;26.58;97489.47;5345929;26;20075;-82
2022/06/20 10:17:44;;;;;;;6.37;3.20;;;;;;;33.37;27.03;97486.13;5325772;26;20446;-81
2022/06/20 10:20:48;;;;;;;7.68;3.08;;;;;;;33.83;26.10;97478.56;5344988;26;20120;-81
2022/06/20 10:23:45;;;;;;;6.78;3.40;;;;;;;33.57;26.51;97474.38;5345802;26;20493;-82
2022/06/20 10:26:50;;;;;;;6.43;3.22;;;;;;;33.92;26.33;97472.69;5345472;26;20067;-83
2022/06/20 10:29:23;;;;;;;6.78;3.55;;;;;;;34.08;26.63;97473.06;5345648;26;20111;-81
2022/06/20 10:32:24;;;;;;;7.18;3.60;;;;;;;34.02;26.23;97471.28;5345962;26;20064;-81
2022/06/20 10:34:55;;;;;;;9.05;3.40;;;;;;;33.83;25.95;97466.00;5345527;26;20360;-81
2022/06/20 10:37:33;;;;;;;6.85;3.70;;;;;;;33.92;27.22;97462.00;5345565;26;20451;-81
2022/06/20 10:40:25;;;;;;;6.55;3.40;;;;;;;34.78;26.55;97465.16;5345256;26;20068;-83
2022/06/20 10:43:11;;;;;;;6.18;3.50;;;;;;;34.41;26.75;97459.19;5326683;26;20411;-82
2022/06/20 10:45:41;;;;;;;7.20;3.05;;;;;;;33.95;26.81;97471.41;5326504;26;20076;-82
2022/06/20 10:48:14;;;;;;;7.95;3.22;;;;;;;34.40;26.68;97468.28;5346956;26;20107;-82
2022/06/20 10:50:44;;;;;;;8.45;2.90;;;;;;;34.37;26.66;97466.03;5346790;26;20399;-84
2022/06/20 10:53:25;;;;;;;5.60;3.17;;;;;;;34.50;26.79;97461.28;5346225;26;20091;-82
2022/06/20 10:55:59;;;;;;;9.32;3.58;;;;;;;34.64;26.74;97467.22;5346337;26;20522;-82
2022/06/20 10:59:03;;;;;;;7.68;3.45;;;;;;;33.90;26.89;97460.56;5308181;26;20056;-82
2022/06/20 11:01:40;;;;;;;6.72;3.30;;;;;;;34.21;26.77;97464.81;5346378;26;20048;-83
2022/06/20 11:04:28;;;;;;;6.53;3.37;;;;;;;34.16;26.43;97470.87;5346450;26;20064;-82
2022/06/20 11:07:23;;;;;;;7.18;3.40;;;;;;;34.42;26.19;97464.31;5345990;26;20077;-83
2022/06/20 11:10:13;;;;;;;11.40;3.35;;;;;;;34.35;27.18;97466.28;5326356;26;20123;-83
2022/06/20 11:12:49;;;;;;;14.02;3.92;;;;;;;34.71;26.63;97456.41;5346487;26;20409;-83
2022/06/20 11:15:50;;;;;;;8.32;3.37;;;;;;;34.78;27.08;97457.91;5326652;26;20107;-83
2022/06/20 11:18:35;;;;;;;8.35;3.30;;;;;;;34.29;25.75;97458.31;5326494;26;20057;-82
2022/06/20 11:21:14;;;;;;;6.00;3.22;;;;;;;34.04;26.01;97445.97;5326964;26;20111;-82
2022/06/20 11:24:11;;;;;;;8.30;3.00;;;;;;;34.41;25.62;97437.75;5346223;26;20063;-82
2022/06/20 11:26:52;;;;;;;6.47;3.40;;;;;;;33.98;26.36;97441.50;5346664;26;20051;-83
2022/06/20 11:29:25;;;;;;;8.32;3.17;;;;;;;34.39;26.44;97443.34;5345867;26;20056;-83
2022/06/20 11:32:08;;;;;;;6.85;3.05;;;;;;;34.29;26.37;97445.75;5327018;26;20365;-83
2022/06/20 11:35:00;;;;;;;6.93;3.17;;;;;;;33.82;26.34;97442.16;5346697;26;20103;-83
2022/06/20 11:37:45;;;;;;;5.80;2.92;;;;;;;34.06;26.27;97456.44;5346231;26;20395;-83
2022/06/20 11:40:33;;;;;;;9.48;3.22;;;;;;;33.80;26.98;97446.88;5346462;26;20112;-83
2022/06/20 11:43:31;;;;;;;9.63;3.35;;;;;;;34.11;27.44;97440.47;5326515;26;20082;-84
2022/06/20 11:46:07;;;;;;;5.80;3.08;;;;;;;34.04;27.35;97450.50;5347889;26;20099;-84
2022/06/20 11:48:52;;;;;;;7.43;3.20;;;;;;;34.54;26.68;97452.78;5346436;26;20067;-84
2022/06/20 11:51:40;;;;;;;6.10;3.30;;;;;;;34.70;26.67;97454.78;5346218;26;20431;-84
2022/06/20 11:54:16;;;;;;;6.05;3.10;;;;;;;34.58;25.93;97453.97;5346579;26;20080;-84
2022/06/20 11:56:58;;;;;;;10.15;4.15;;;;;;;34.37;27.35;97448.09;5346734;26;20127;-84
2022/06/20 11:59:38;;;;;;;6.80;3.33;;;;;;;34.98;25.91;97460.25;5346396;26;20056;-84
2022/06/20 12:02:14;;;;;;;10.85;3.30;;;;;;;34.75;26.44;97446.84;5308534;26;20119;-83
2022/06/20 12:04:50;;;;;;;7.40;3.40;;;;;;;34.71;26.63;97438.47;5346213;26;20120;-84
2022/06/20 12:07:47;;;;;;;7.75;3.42;;;;;;;34.11;27.40;97437.81;5346508;26;20052;-84
2022/06/20 12:10:15;;;;;;;8.02;3.50;;;;;;;34.17;27.65;97436.91;5326688;26;20079;-85
2022/06/20 12:13:18;;;;;;;7.00;3.70;;;;;;;34.18;27.48;97431.31;5326204;26;20071;-84
2022/06/20 12:15:58;;;;;;;6.85;3.70;;;;;;;33.84;28.04;97443.53;5254172;26;20064;-83
2022/06/20 12:18:39;;;;;;;5.90;3.28;;;;;;;34.92;26.46;97441.63;5307808;26;20052;-82
2022/06/20 12:24:00;;;;;;;8.38;3.50;;;;;;;35.09;25.43;97442.50;5330082;26;20091;-82
2022/06/20 12:26:35;;;;;;;7.75;3.92;;;;;;;34.54;26.64;97447.44;5346087;26;20064;-81
2022/06/20 12:29:11;;;;;;;5.75;3.42;;;;;;;34.73;26.77;97439.03;5326788;26;20049;-82
2022/06/20 12:31:40;;;;;;;8.82;3.80;;;;;;;33.95;27.57;97425.91;5326595;26;20377;-82
2022/06/20 12:34:19;;;;;;;7.37;3.50;;;;;;;34.59;27.20;97434.16;5326291;26;20061;-82
2022/06/20 12:37:10;;;;;;;6.12;3.37;;;;;;;34.61;27.87;97437.41;5308573;26;20095;-82
2022/06/20 12:39:50;;;;;;;6.62;3.58;;;;;;;35.21;26.19;97443.31;5326342;26;20072;-81